createdAt,value
2018-03-24T00:00:35.000Z,98984
2018-03-24T00:02:35.000Z,98982
2018-03-24T00:07:35.000Z,98984
2018-03-24T00:09:21.000Z,98979
2018-03-24T00:10:21.000Z,98979
2018-03-24T00:12:06.000Z,98979
2018-03-24T00:13:21.000Z,98979
2018-03-24T00:14:21.000Z,98986
2018-03-24T00:16:21.000Z,98977
2018-03-24T00:17:21.000Z,98980
2018-03-24T00:19:21.000Z,98977
2018-03-24T00:21:21.000Z,98976
2018-03-24T00:23:21.000Z,98980
2018-03-24T00:24:21.000Z,98980
2018-03-24T00:26:21.000Z,98979
2018-03-24T00:27:21.000Z,98980
2018-03-24T00:29:21.000Z,98977
2018-03-24T00:30:21.000Z,98974
2018-03-24T00:32:21.000Z,98971
2018-03-24T00:33:21.000Z,98974
2018-03-24T00:35:21.000Z,98978
2018-03-24T00:37:21.000Z,98971
2018-03-24T00:38:50.000Z,98971
2018-03-24T00:40:21.000Z,98971
2018-03-24T00:42:21.000Z,98967
2018-03-24T00:44:21.000Z,98973
2018-03-24T00:46:21.000Z,98968
2018-03-24T00:48:20.000Z,98966
2018-03-24T00:49:20.000Z,98965
2018-03-24T00:51:20.000Z,98969
2018-03-24T00:53:20.000Z,98966
2018-03-24T00:54:20.000Z,98963
2018-03-24T00:56:20.000Z,98964
2018-03-24T00:58:05.000Z,98967
2018-03-24T00:59:20.000Z,98965
2018-03-24T01:00:20.000Z,98963
2018-03-24T01:01:20.000Z,98959
2018-03-24T01:03:20.000Z,98963
2018-03-24T01:05:20.000Z,98965
2018-03-24T01:07:20.000Z,98963
2018-03-24T01:09:05.000Z,98962
2018-03-24T01:10:20.000Z,98959
2018-03-24T01:11:20.000Z,98960
2018-03-24T01:13:20.000Z,98957
2018-03-24T01:15:20.000Z,98958
2018-03-24T01:17:20.000Z,98957
2018-03-24T01:19:20.000Z,98959
2018-03-24T01:21:20.000Z,98948
2018-03-24T01:23:20.000Z,98947
2018-03-24T01:25:20.000Z,98946
2018-03-24T01:27:20.000Z,98957
2018-03-24T01:29:20.000Z,98948
2018-03-24T01:30:20.000Z,98946
2018-03-24T01:32:20.000Z,98945
2018-03-24T01:33:20.000Z,98944
2018-03-24T01:35:20.000Z,98948
2018-03-24T01:37:05.000Z,98948
2018-03-24T01:38:20.000Z,98948
2018-03-24T01:40:20.000Z,98951
2018-03-24T01:41:20.000Z,98948
2018-03-24T01:42:20.000Z,98946
2018-03-24T01:44:20.000Z,98940
2018-03-24T01:46:20.000Z,98948
2018-03-24T01:48:05.000Z,98950
2018-03-24T01:49:20.000Z,98953
2018-03-24T01:51:20.000Z,98948
2018-03-24T01:52:20.000Z,98951
2018-03-24T01:54:20.000Z,98953
2018-03-24T01:56:20.000Z,98956
2018-03-24T01:57:20.000Z,98956
2018-03-24T01:59:20.000Z,98953
2018-03-24T02:00:20.000Z,98951
2018-03-24T02:05:20.000Z,98960
2018-03-24T02:07:06.000Z,98955
2018-03-24T02:09:06.000Z,98955
2018-03-24T02:11:06.000Z,98949
2018-03-24T02:13:06.000Z,98951
2018-03-24T02:15:06.000Z,98944
2018-03-24T02:17:06.000Z,98952
2018-03-24T02:19:06.000Z,98947
2018-03-24T02:21:06.000Z,98940
2018-03-24T02:22:06.000Z,98946
2018-03-24T02:24:06.000Z,98945
2018-03-24T02:26:06.000Z,98945
2018-03-24T02:28:06.000Z,98943
2018-03-24T02:30:06.000Z,98940
2018-03-24T02:31:06.000Z,98939
2018-03-24T02:33:06.000Z,98938
2018-03-24T02:35:06.000Z,98940
2018-03-24T02:36:51.000Z,98941
2018-03-24T02:38:06.000Z,98943
2018-03-24T02:39:35.000Z,98940
2018-03-24T02:41:06.000Z,98947
2018-03-24T02:43:06.000Z,98942
2018-03-24T02:45:06.000Z,98944
2018-03-24T02:47:06.000Z,98943
2018-03-24T02:48:06.000Z,98938
2018-03-24T02:49:06.000Z,98941
2018-03-24T02:51:06.000Z,98943
2018-03-24T02:52:51.000Z,98945
2018-03-24T02:54:06.000Z,98943
2018-03-24T02:56:07.000Z,98941
2018-03-24T02:57:07.000Z,98941
2018-03-24T02:59:07.000Z,98939
2018-03-24T03:00:07.000Z,98940
2018-03-24T03:02:07.000Z,98941
2018-03-24T03:04:07.000Z,98943
2018-03-24T03:05:51.000Z,98937
2018-03-24T03:07:07.000Z,98941
2018-03-24T03:08:07.000Z,98941
2018-03-24T03:09:07.000Z,98937
2018-03-24T03:10:51.000Z,98947
2018-03-24T03:12:07.000Z,98941
2018-03-24T03:14:07.000Z,98951
2018-03-24T03:16:07.000Z,98941
2018-03-24T03:18:07.000Z,98943
2018-03-24T03:19:07.000Z,98945
2018-03-24T03:21:07.000Z,98941
2018-03-24T03:22:07.000Z,98947
2018-03-24T03:23:07.000Z,98947
2018-03-24T03:25:07.000Z,98948
2018-03-24T03:26:07.000Z,98947
2018-03-24T03:28:07.000Z,98943
2018-03-24T03:29:07.000Z,98949
2018-03-24T03:31:07.000Z,98948
2018-03-24T03:32:07.000Z,98950
2018-03-24T03:34:07.000Z,98944
2018-03-24T03:36:07.000Z,98946
2018-03-24T03:37:07.000Z,98950
2018-03-24T03:39:07.000Z,98946
2018-03-24T03:41:07.000Z,98941
2018-03-24T03:43:07.000Z,98943
2018-03-24T03:44:07.000Z,98943
2018-03-24T03:46:07.000Z,98945
2018-03-24T03:47:07.000Z,98944
2018-03-24T03:49:07.000Z,98943
2018-03-24T03:50:07.000Z,98943
2018-03-24T03:52:07.000Z,98944
2018-03-24T03:53:51.000Z,98943
2018-03-24T03:55:07.000Z,98949
2018-03-24T03:57:07.000Z,98943
2018-03-24T03:59:06.000Z,98945
2018-03-24T04:00:06.000Z,98946
2018-03-24T04:02:06.000Z,98947
2018-03-24T04:04:06.000Z,98945
2018-03-24T04:05:06.000Z,98947
2018-03-24T04:07:06.000Z,98945
2018-03-24T04:08:06.000Z,98942
2018-03-24T04:10:06.000Z,98943
2018-03-24T04:11:06.000Z,98942
2018-03-24T04:13:06.000Z,98931
2018-03-24T04:15:06.000Z,98939
2018-03-24T04:17:06.000Z,98937
2018-03-24T04:18:51.000Z,98944
2018-03-24T04:20:06.000Z,98943
2018-03-24T04:21:36.000Z,98946
2018-03-24T04:23:06.000Z,98945
2018-03-24T04:25:06.000Z,98949
2018-03-24T04:27:06.000Z,98947
2018-03-24T04:29:06.000Z,98941
2018-03-24T04:31:06.000Z,98947
2018-03-24T04:32:51.000Z,98950
2018-03-24T04:34:06.000Z,98949
2018-03-24T04:36:06.000Z,98947
2018-03-24T04:38:06.000Z,98949
2018-03-24T04:40:06.000Z,98945
2018-03-24T04:42:06.000Z,98956
2018-03-24T04:44:06.000Z,98952
2018-03-24T04:46:06.000Z,98945
2018-03-24T04:47:06.000Z,98948
2018-03-24T04:49:06.000Z,98948
2018-03-24T04:50:06.000Z,98951
2018-03-24T04:52:06.000Z,98947
2018-03-24T04:54:06.000Z,98946
2018-03-24T04:56:06.000Z,98947
2018-03-24T04:57:51.000Z,98946
2018-03-24T04:59:06.000Z,98951
2018-03-24T05:00:06.000Z,98947
2018-03-24T05:02:06.000Z,98944
2018-03-24T05:03:06.000Z,98948
2018-03-24T05:04:06.000Z,98950
2018-03-24T05:05:06.000Z,98948
2018-03-24T05:07:06.000Z,98953
2018-03-24T05:09:06.000Z,98953
2018-03-24T05:10:51.000Z,98948
2018-03-24T05:12:06.000Z,98948
2018-03-24T05:14:06.000Z,98952
2018-03-24T05:15:06.000Z,98950
2018-03-24T05:16:51.000Z,98948
2018-03-24T05:18:06.000Z,98952
2018-03-24T05:20:06.000Z,98949
2018-03-24T05:21:06.000Z,98947
2018-03-24T05:22:51.000Z,98948
2018-03-24T05:24:06.000Z,98955
2018-03-24T05:26:06.000Z,98952
2018-03-24T05:28:06.000Z,98948
2018-03-24T05:30:06.000Z,98947
2018-03-24T05:32:06.000Z,98953
2018-03-24T05:33:51.000Z,98951
2018-03-24T05:35:06.000Z,98955
2018-03-24T05:37:06.000Z,98961
2018-03-24T05:39:06.000Z,98956
2018-03-24T05:40:06.000Z,98952
2018-03-24T05:41:06.000Z,98956
2018-03-24T05:43:06.000Z,98956
2018-03-24T05:44:51.000Z,98952
2018-03-24T05:46:06.000Z,98959
2018-03-24T05:48:06.000Z,98961
2018-03-24T05:49:51.000Z,98958
2018-03-24T05:51:06.000Z,98959
2018-03-24T05:53:06.000Z,98960
2018-03-24T05:54:51.000Z,98961
2018-03-24T05:56:06.000Z,98965
2018-03-24T05:58:06.000Z,98961
2018-03-24T05:59:36.000Z,98966
2018-03-24T06:01:06.000Z,98958
2018-03-24T06:02:06.000Z,98956
2018-03-24T06:04:06.000Z,98963
2018-03-24T06:06:06.000Z,98963
2018-03-24T06:07:06.000Z,98974
2018-03-24T06:09:06.000Z,98969
2018-03-24T06:10:06.000Z,98972
2018-03-24T06:11:06.000Z,98972
2018-03-24T06:13:06.000Z,98975
2018-03-24T06:14:06.000Z,98975
2018-03-24T06:15:51.000Z,98982
2018-03-24T06:17:06.000Z,98975
2018-03-24T06:18:06.000Z,98979
2018-03-24T06:19:06.000Z,98977
2018-03-24T06:20:06.000Z,98977
2018-03-24T06:22:06.000Z,98986
2018-03-24T06:23:06.000Z,98980
2018-03-24T06:25:06.000Z,98982
2018-03-24T06:26:06.000Z,98978
2018-03-24T06:28:06.000Z,98984
2018-03-24T06:29:06.000Z,98979
2018-03-24T06:31:06.000Z,98979
2018-03-24T06:33:06.000Z,98974
2018-03-24T06:34:06.000Z,98978
2018-03-24T06:36:06.000Z,98981
2018-03-24T06:38:06.000Z,98981
2018-03-24T06:40:06.000Z,98978
2018-03-24T06:42:06.000Z,98982
2018-03-24T06:43:06.000Z,98980
2018-03-24T06:45:06.000Z,98984
2018-03-24T06:46:06.000Z,98981
2018-03-24T06:47:06.000Z,98981
2018-03-24T06:48:06.000Z,98979
2018-03-24T06:50:06.000Z,98981
2018-03-24T06:52:06.000Z,98982
2018-03-24T06:54:06.000Z,98980
2018-03-24T06:56:06.000Z,98977
2018-03-24T06:57:06.000Z,98979
2018-03-24T06:59:06.000Z,98975
2018-03-24T07:00:06.000Z,98978
2018-03-24T07:02:06.000Z,98981
2018-03-24T07:04:06.000Z,98979
2018-03-24T07:06:06.000Z,98979
2018-03-24T07:07:06.000Z,98975
2018-03-24T07:09:06.000Z,98979
2018-03-24T07:11:06.000Z,98980
2018-03-24T07:12:06.000Z,98981
2018-03-24T07:14:06.000Z,98988
2018-03-24T07:15:06.000Z,98992
2018-03-24T07:17:06.000Z,98991
2018-03-24T07:19:06.000Z,98993
2018-03-24T07:20:35.000Z,98997
2018-03-24T07:22:06.000Z,99002
2018-03-24T07:23:51.000Z,98999
2018-03-24T07:25:06.000Z,98998
2018-03-24T07:26:06.000Z,98998
2018-03-24T07:28:06.000Z,98999
2018-03-24T07:30:06.000Z,98997
2018-03-24T07:32:06.000Z,98998
2018-03-24T07:34:06.000Z,98996
2018-03-24T07:36:06.000Z,98997
2018-03-24T07:38:06.000Z,98993
2018-03-24T07:39:06.000Z,98998
2018-03-24T07:41:06.000Z,98994
2018-03-24T07:43:06.000Z,98997
2018-03-24T07:45:06.000Z,99001
2018-03-24T07:47:06.000Z,99003
2018-03-24T07:49:06.000Z,99010
2018-03-24T07:51:06.000Z,99009
2018-03-24T07:53:06.000Z,99011
2018-03-24T07:55:06.000Z,99003
2018-03-24T07:56:35.000Z,99009
2018-03-24T07:58:06.000Z,99010
2018-03-24T08:00:06.000Z,99012
2018-03-24T08:02:06.000Z,99016
2018-03-24T08:04:06.000Z,99015
2018-03-24T08:06:06.000Z,99015
2018-03-24T08:08:06.000Z,99013
2018-03-24T08:10:06.000Z,99017
2018-03-24T08:12:06.000Z,99016
2018-03-24T08:13:06.000Z,99026
2018-03-24T08:15:06.000Z,99021
2018-03-24T08:16:06.000Z,99024
2018-03-24T08:17:51.000Z,99020
2018-03-24T08:19:06.000Z,99023
2018-03-24T08:21:06.000Z,99025
2018-03-24T08:22:51.000Z,98943
2018-03-24T08:25:06.000Z,99026
2018-03-24T08:27:06.000Z,99029
2018-03-24T08:28:51.000Z,99026
2018-03-24T08:30:06.000Z,99031
2018-03-24T08:32:06.000Z,99027
2018-03-24T08:33:51.000Z,99031
2018-03-24T08:35:06.000Z,99031
2018-03-24T08:36:51.000Z,99030
2018-03-24T08:38:06.000Z,99031
2018-03-24T08:40:06.000Z,99031
2018-03-24T08:41:06.000Z,99030
2018-03-24T08:43:06.000Z,99032
2018-03-24T08:44:51.000Z,99029
2018-03-24T08:46:06.000Z,99029
2018-03-24T08:47:06.000Z,99029
2018-03-24T08:49:06.000Z,99036
2018-03-24T08:51:06.000Z,99036
2018-03-24T08:52:06.000Z,99037
2018-03-24T08:54:06.000Z,99042
2018-03-24T08:55:06.000Z,99041
2018-03-24T08:57:06.000Z,99039
2018-03-24T08:59:06.000Z,99036
2018-03-24T09:01:06.000Z,99039
2018-03-24T09:03:06.000Z,99042
2018-03-24T09:04:06.000Z,99044
2018-03-24T09:06:06.000Z,99045
2018-03-24T09:07:06.000Z,99040
2018-03-24T09:09:06.000Z,99045
2018-03-24T09:11:06.000Z,99053
2018-03-24T09:13:06.000Z,99050
2018-03-24T09:15:06.000Z,99051
2018-03-24T09:16:06.000Z,99045
2018-03-24T09:17:06.000Z,99046
2018-03-24T09:20:52.000Z,99046
2018-03-24T09:22:37.000Z,99052
2018-03-24T09:23:52.000Z,99050
2018-03-24T09:25:52.000Z,99051
2018-03-24T09:26:52.000Z,99053
2018-03-24T09:28:37.000Z,99054
2018-03-24T09:29:52.000Z,99051
2018-03-24T09:30:52.000Z,99053
2018-03-24T09:32:53.000Z,99045
2018-03-24T09:34:52.000Z,99046
2018-03-24T09:35:52.000Z,99045
2018-03-24T09:36:53.000Z,99045
2018-03-24T09:38:53.000Z,99046
2018-03-24T09:40:52.000Z,99044
2018-03-24T09:41:53.000Z,99044
2018-03-24T09:43:37.000Z,99046
2018-03-24T09:44:53.000Z,99047
2018-03-24T09:46:52.000Z,99046
2018-03-24T09:47:53.000Z,99046
2018-03-24T09:49:53.000Z,99045
2018-03-24T09:51:53.000Z,99044
2018-03-24T09:53:53.000Z,99041
2018-03-24T09:55:53.000Z,99043
2018-03-24T09:57:52.000Z,99039
2018-03-24T09:59:52.000Z,99044
2018-03-24T10:01:52.000Z,99038
2018-03-24T10:02:53.000Z,99043
2018-03-24T10:04:52.000Z,99039
2018-03-24T10:06:53.000Z,99031
2018-03-24T10:08:52.000Z,99035
2018-03-24T10:09:53.000Z,99031
2018-03-24T10:11:52.000Z,99031
2018-03-24T10:12:53.000Z,99031
2018-03-24T10:14:53.000Z,99030
2018-03-24T10:16:53.000Z,99029
2018-03-24T10:18:52.000Z,99031
2018-03-24T10:19:53.000Z,99027
2018-03-24T10:21:38.000Z,99025
2018-03-24T10:22:53.000Z,99027
2018-03-24T10:24:53.000Z,99023
2018-03-24T10:25:53.000Z,99024
2018-03-24T10:27:53.000Z,99026
2018-03-24T10:29:38.000Z,99029
2018-03-24T10:31:53.000Z,99022
2018-03-24T10:32:53.000Z,99016
2018-03-24T10:34:38.000Z,99017
2018-03-24T10:35:53.000Z,99018
2018-03-24T10:37:53.000Z,99011
2018-03-24T10:39:53.000Z,99006
2018-03-24T10:41:53.000Z,99014
2018-03-24T10:43:53.000Z,99014
2018-03-24T10:44:53.000Z,99016
2018-03-24T10:46:53.000Z,99012
2018-03-24T10:47:53.000Z,99010
2018-03-24T10:49:53.000Z,99016
2018-03-24T10:50:53.000Z,99015
2018-03-24T10:52:53.000Z,99010
2018-03-24T10:53:53.000Z,99011
2018-03-24T10:55:53.000Z,99007
2018-03-24T10:57:53.000Z,99002
2018-03-24T10:59:38.000Z,99007
2018-03-24T11:00:53.000Z,99005
2018-03-24T11:02:53.000Z,99008
2018-03-24T11:04:53.000Z,99012
2018-03-24T11:06:53.000Z,99005
2018-03-24T11:08:53.000Z,99008
2018-03-24T11:10:38.000Z,99000
2018-03-24T11:11:53.000Z,99002
2018-03-24T11:12:53.000Z,99006
2018-03-24T11:14:22.000Z,98999
2018-03-24T11:15:53.000Z,98996
2018-03-24T11:17:53.000Z,98998
2018-03-24T11:19:38.000Z,98991
2018-03-24T11:20:53.000Z,98993
2018-03-24T11:21:53.000Z,98996
2018-03-24T11:23:53.000Z,98996
2018-03-24T11:24:53.000Z,98993
2018-03-24T11:26:53.000Z,98997
2018-03-24T11:28:53.000Z,98991
2018-03-24T11:29:53.000Z,98989
2018-03-24T11:31:53.000Z,98989
2018-03-24T11:33:53.000Z,98990
2018-03-24T11:35:53.000Z,98980
2018-03-24T11:36:53.000Z,98983
2018-03-24T11:38:53.000Z,98988
2018-03-24T11:40:38.000Z,98990
2018-03-24T11:41:53.000Z,98989
2018-03-24T11:42:53.000Z,98990
2018-03-24T11:44:38.000Z,98982
2018-03-24T11:45:53.000Z,98991
2018-03-24T11:47:53.000Z,98988
2018-03-24T11:48:53.000Z,98983
2018-03-24T11:50:53.000Z,98981
2018-03-24T11:52:53.000Z,98983
2018-03-24T11:54:53.000Z,98982
2018-03-24T11:56:38.000Z,98981
2018-03-24T11:57:53.000Z,98981
2018-03-24T11:58:53.000Z,98978
2018-03-24T12:00:53.000Z,98979
2018-03-24T12:01:53.000Z,98976
2018-03-24T12:03:53.000Z,98971
2018-03-24T12:04:53.000Z,98976
2018-03-24T12:06:38.000Z,98974
2018-03-24T12:07:53.000Z,98977
2018-03-24T12:09:53.000Z,98983
2018-03-24T12:10:53.000Z,98983
2018-03-24T12:11:53.000Z,98981
2018-03-24T12:13:53.000Z,98986
2018-03-24T12:15:53.000Z,98983
2018-03-24T12:17:53.000Z,98981
2018-03-24T12:18:53.000Z,98975
2018-03-24T12:20:53.000Z,98974
2018-03-24T12:22:53.000Z,98979
2018-03-24T12:23:53.000Z,98978
2018-03-24T12:24:53.000Z,98974
2018-03-24T12:26:38.000Z,98977
2018-03-24T12:27:53.000Z,98975
2018-03-24T12:29:53.000Z,98978
2018-03-24T12:31:37.000Z,98977
2018-03-24T12:32:53.000Z,98976
2018-03-24T12:34:53.000Z,98973
2018-03-24T12:36:53.000Z,98979
2018-03-24T12:37:53.000Z,98977
2018-03-24T12:39:53.000Z,98984
2018-03-24T12:40:53.000Z,98983
2018-03-24T12:42:53.000Z,98986
2018-03-24T12:44:53.000Z,98979
2018-03-24T12:46:37.000Z,98979
2018-03-24T12:47:53.000Z,98977
2018-03-24T12:49:53.000Z,98981
2018-03-24T12:51:52.000Z,98982
2018-03-24T12:52:53.000Z,98979
2018-03-24T12:53:53.000Z,98979
2018-03-24T12:54:53.000Z,98979
2018-03-24T12:56:53.000Z,98976
2018-03-24T12:57:53.000Z,98977
2018-03-24T12:59:53.000Z,98977
2018-03-24T13:01:22.000Z,98979
2018-03-24T13:02:53.000Z,98975
2018-03-24T13:04:53.000Z,98968
2018-03-24T13:05:53.000Z,98973
2018-03-24T13:07:53.000Z,98972
2018-03-24T13:08:53.000Z,98966
2018-03-24T13:10:53.000Z,98967
2018-03-24T13:12:53.000Z,98963
2018-03-24T13:13:53.000Z,98960
2018-03-24T13:14:53.000Z,98969
2018-03-24T13:16:53.000Z,98966
2018-03-24T13:18:53.000Z,98966
2018-03-24T13:19:53.000Z,98967
2018-03-24T13:21:53.000Z,98961
2018-03-24T13:23:37.000Z,98966
2018-03-24T13:24:53.000Z,98967
2018-03-24T13:25:53.000Z,98967
2018-03-24T13:27:53.000Z,98967
2018-03-24T13:28:53.000Z,98970
2018-03-24T13:29:53.000Z,98968
2018-03-24T13:31:53.000Z,98967
2018-03-24T13:33:52.000Z,98969
2018-03-24T13:34:53.000Z,98969
2018-03-24T13:36:53.000Z,98971
2018-03-24T13:37:53.000Z,98966
2018-03-24T13:38:53.000Z,98962
2018-03-24T13:40:53.000Z,98958
2018-03-24T13:41:53.000Z,98965
2018-03-24T13:43:53.000Z,98964
2018-03-24T13:45:53.000Z,98966
2018-03-24T13:47:53.000Z,98959
2018-03-24T13:49:53.000Z,98963
2018-03-24T13:51:53.000Z,98962
2018-03-24T13:52:53.000Z,98961
2018-03-24T13:54:53.000Z,98962
2018-03-24T13:56:37.000Z,98959
2018-03-24T13:57:53.000Z,98969
2018-03-24T13:58:53.000Z,98963
2018-03-24T14:00:37.000Z,98959
2018-03-24T14:01:53.000Z,98960
2018-03-24T14:03:53.000Z,98967
2018-03-24T14:04:53.000Z,98965
2018-03-24T14:06:53.000Z,98967
2018-03-24T14:08:53.000Z,98968
2018-03-24T14:10:37.000Z,98957
2018-03-24T14:11:53.000Z,98956
2018-03-24T14:13:53.000Z,98958
2018-03-24T14:15:53.000Z,98962
2018-03-24T14:17:53.000Z,98965
2018-03-24T14:19:53.000Z,98967
2018-03-24T14:20:53.000Z,98963
2018-03-24T14:22:53.000Z,98960
2018-03-24T14:24:53.000Z,98967
2018-03-24T14:26:53.000Z,98962
2018-03-24T14:28:53.000Z,98965
2018-03-24T14:29:53.000Z,98967
2018-03-24T14:31:53.000Z,98963
2018-03-24T14:33:53.000Z,98965
2018-03-24T14:34:53.000Z,98964
2018-03-24T14:35:52.000Z,98967
2018-03-24T14:37:52.000Z,98964
2018-03-24T14:39:52.000Z,98961
2018-03-24T14:40:52.000Z,98959
2018-03-24T14:42:52.000Z,98967
2018-03-24T14:44:52.000Z,98959
2018-03-24T14:45:52.000Z,98961
2018-03-24T14:46:52.000Z,98966
2018-03-24T14:48:37.000Z,98961
2018-03-24T14:49:52.000Z,98960
2018-03-24T14:50:52.000Z,98964
2018-03-24T14:52:52.000Z,98958
2018-03-24T14:53:52.000Z,98955
2018-03-24T14:55:52.000Z,98955
2018-03-24T14:57:52.000Z,98956
2018-03-24T14:59:52.000Z,98954
2018-03-24T15:00:52.000Z,98959
2018-03-24T15:02:37.000Z,98959
2018-03-24T15:03:52.000Z,98953
2018-03-24T15:04:52.000Z,98957
2018-03-24T15:06:52.000Z,98954
2018-03-24T15:08:52.000Z,98951
2018-03-24T15:10:37.000Z,98953
2018-03-24T15:11:52.000Z,98952
2018-03-24T15:13:52.000Z,98956
2018-03-24T15:15:37.000Z,98944
2018-03-24T15:16:52.000Z,98948
2018-03-24T15:18:52.000Z,98954
2018-03-24T15:20:52.000Z,98955
2018-03-24T15:22:52.000Z,98954
2018-03-24T15:23:52.000Z,98959
2018-03-24T15:24:52.000Z,98964
2018-03-24T15:26:37.000Z,98956
2018-03-24T15:27:52.000Z,98956
2018-03-24T15:29:37.000Z,98965
2018-03-24T15:30:52.000Z,98968
2018-03-24T15:32:52.000Z,98962
2018-03-24T15:34:37.000Z,98962
2018-03-24T15:35:52.000Z,98970
2018-03-24T16:12:41.000Z,98979
2018-03-24T16:14:12.000Z,98976
2018-03-24T16:15:27.000Z,98979
2018-03-24T16:16:27.000Z,98982
2018-03-24T16:18:12.000Z,98989
2018-03-24T16:19:27.000Z,98984
2018-03-24T16:20:27.000Z,98983
2018-03-24T16:22:27.000Z,98988
2018-03-24T16:23:27.000Z,98988
2018-03-24T16:25:12.000Z,98985
2018-03-24T16:26:27.000Z,98991
2018-03-24T16:28:27.000Z,98987
2018-03-24T16:29:27.000Z,98985
2018-03-24T16:31:27.000Z,98988
2018-03-24T16:33:27.000Z,98991
2018-03-24T16:35:27.000Z,98994
2018-03-24T16:36:27.000Z,98992
2018-03-24T16:38:27.000Z,99003
2018-03-24T16:40:12.000Z,98997
2018-03-24T16:41:28.000Z,99000
2018-03-24T16:43:28.000Z,99002
2018-03-24T16:44:28.000Z,98996
2018-03-24T16:46:28.000Z,99002
2018-03-24T16:48:28.000Z,99004
2018-03-24T16:50:28.000Z,98999
2018-03-24T16:52:28.000Z,99005
2018-03-24T16:54:12.000Z,99006
2018-03-24T16:55:28.000Z,99002
2018-03-24T16:57:12.000Z,99007
2018-03-24T16:58:28.000Z,99007
2018-03-24T16:59:28.000Z,99002
2018-03-24T17:01:28.000Z,99004
2018-03-24T17:03:28.000Z,98997
2018-03-24T17:04:28.000Z,99000
2018-03-24T17:05:28.000Z,99003
2018-03-24T17:06:28.000Z,99003
2018-03-24T17:08:28.000Z,99011
2018-03-24T17:10:12.000Z,99009
2018-03-24T17:11:28.000Z,99011
2018-03-24T17:13:28.000Z,99011
2018-03-24T17:15:28.000Z,99008
2018-03-24T17:17:28.000Z,99018
2018-03-24T17:18:57.000Z,99015
2018-03-24T17:20:28.000Z,99017
2018-03-24T17:21:28.000Z,99017
2018-03-24T17:22:28.000Z,99022
2018-03-24T17:24:12.000Z,99021
2018-03-24T17:25:28.000Z,99026
2018-03-24T17:27:28.000Z,99027
2018-03-24T17:29:28.000Z,99025
2018-03-24T17:30:28.000Z,99027
2018-03-24T17:31:28.000Z,99028
2018-03-24T17:33:28.000Z,99029
2018-03-24T17:35:12.000Z,99033
2018-03-24T17:36:28.000Z,99037
2018-03-24T17:37:28.000Z,99038
2018-03-24T17:38:28.000Z,99038
2018-03-24T17:39:28.000Z,99034
2018-03-24T17:41:28.000Z,99037
2018-03-24T17:43:28.000Z,99033
2018-03-24T17:44:28.000Z,99036
2018-03-24T17:46:27.000Z,99035
2018-03-24T17:47:27.000Z,99033
2018-03-24T17:48:27.000Z,99029
2018-03-24T17:50:12.000Z,99037
2018-03-24T17:51:27.000Z,99033
2018-03-24T17:53:27.000Z,99036
2018-03-24T17:55:12.000Z,99035
2018-03-24T17:56:27.000Z,99038
2018-03-24T17:58:27.000Z,99039
2018-03-24T17:59:27.000Z,99045
2018-03-24T18:01:27.000Z,99048
2018-03-24T18:03:27.000Z,99052
2018-03-24T18:04:27.000Z,99048
2018-03-24T18:06:27.000Z,99051
2018-03-24T18:08:12.000Z,99052
2018-03-24T18:09:27.000Z,99055
2018-03-24T18:10:27.000Z,99053
2018-03-24T18:12:27.000Z,99062
2018-03-24T18:13:27.000Z,99059
2018-03-24T18:14:27.000Z,99059
2018-03-24T18:16:27.000Z,99061
2018-03-24T18:18:27.000Z,99067
2018-03-24T18:19:27.000Z,99065
2018-03-24T18:21:12.000Z,99061
2018-03-24T18:22:27.000Z,99061
2018-03-24T18:24:12.000Z,99064
2018-03-24T18:25:27.000Z,99062
2018-03-24T18:27:27.000Z,99064
2018-03-24T18:29:27.000Z,99067
2018-03-24T18:31:27.000Z,99069
2018-03-24T18:33:27.000Z,99069
2018-03-24T18:35:27.000Z,99070
2018-03-24T18:37:27.000Z,99076
2018-03-24T18:39:27.000Z,99076
2018-03-24T18:40:27.000Z,99076
2018-03-24T18:42:27.000Z,99078
2018-03-24T18:44:27.000Z,99074
2018-03-24T18:46:27.000Z,99079
2018-03-24T18:47:27.000Z,99080
2018-03-24T18:49:27.000Z,99079
2018-03-24T18:50:27.000Z,99080
2018-03-24T18:52:27.000Z,99077
2018-03-24T18:54:27.000Z,99085
2018-03-24T18:56:27.000Z,99075
2018-03-24T18:58:27.000Z,99072
2018-03-24T18:59:27.000Z,99078
2018-03-24T19:01:27.000Z,99075
2018-03-24T19:02:27.000Z,99080
2018-03-24T19:04:27.000Z,99083
2018-03-24T19:06:27.000Z,99086
2018-03-24T19:08:27.000Z,99085
2018-03-24T19:10:27.000Z,99089
2018-03-24T19:12:12.000Z,99087
2018-03-24T19:13:27.000Z,99091
2018-03-24T19:15:27.000Z,99092
2018-03-24T19:17:27.000Z,99091
2018-03-24T19:19:12.000Z,99096
2018-03-24T19:20:27.000Z,99097
2018-03-24T19:21:27.000Z,99093
2018-03-24T19:22:27.000Z,99098
2018-03-24T19:24:27.000Z,99096
2018-03-24T19:25:27.000Z,99096
2018-03-24T19:27:12.000Z,99101
2018-03-24T19:28:27.000Z,99104
2018-03-24T19:30:12.000Z,99095
2018-03-24T19:31:27.000Z,99098
2018-03-24T19:33:27.000Z,99103
2018-03-24T19:34:27.000Z,99102
2018-03-24T19:35:27.000Z,99097
2018-03-24T19:37:27.000Z,99102
2018-03-24T19:39:27.000Z,99104
2018-03-24T19:40:27.000Z,99106
2018-03-24T19:42:12.000Z,99101
2018-03-24T19:43:27.000Z,99102
2018-03-24T19:45:27.000Z,99099
2018-03-24T19:47:27.000Z,99098
2018-03-24T19:49:27.000Z,99104
2018-03-24T19:51:27.000Z,99108
2018-03-24T19:53:28.000Z,99104
2018-03-24T19:54:28.000Z,99102
2018-03-24T19:55:58.000Z,99106
2018-03-24T19:57:28.000Z,99106
2018-03-24T19:59:28.000Z,99108
2018-03-24T20:01:28.000Z,99103
2018-03-24T20:02:28.000Z,99103
2018-03-24T20:04:28.000Z,99105
2018-03-24T20:06:28.000Z,99101
2018-03-24T20:08:28.000Z,99103
2018-03-24T20:10:28.000Z,99104
2018-03-24T20:12:28.000Z,99109
2018-03-24T20:14:28.000Z,99110
2018-03-24T20:16:13.000Z,99113
2018-03-24T20:17:28.000Z,99113
2018-03-24T20:19:13.000Z,99119
2018-03-24T20:20:28.000Z,99114
2018-03-24T20:21:57.000Z,99117
2018-03-24T20:23:28.000Z,99116
2018-03-24T20:25:28.000Z,99122
2018-03-24T20:26:28.000Z,99126
2018-03-24T20:28:28.000Z,99119
2018-03-24T20:30:13.000Z,99123
2018-03-24T20:31:28.000Z,99121
2018-03-24T20:33:28.000Z,99120
2018-03-24T20:34:28.000Z,99116
2018-03-24T20:36:28.000Z,99122
2018-03-24T20:38:28.000Z,99122
2018-03-24T20:40:13.000Z,99123
2018-03-24T20:41:28.000Z,99118
2018-03-24T20:43:28.000Z,99124
2018-03-24T20:45:28.000Z,99127
2018-03-24T20:47:28.000Z,99130
2018-03-24T20:49:28.000Z,99127
2018-03-24T20:51:13.000Z,99124
2018-03-24T20:52:28.000Z,99126
2018-03-24T20:54:28.000Z,99129
2018-03-24T20:55:28.000Z,99129
2018-03-24T20:57:27.000Z,99131
2018-03-24T20:59:27.000Z,99133
2018-03-24T21:00:27.000Z,99135
2018-03-24T21:02:27.000Z,99133
2018-03-24T21:04:27.000Z,99136
2018-03-24T21:05:27.000Z,99134
2018-03-24T21:06:27.000Z,99131
2018-03-24T21:08:27.000Z,99138
2018-03-24T21:10:27.000Z,99142
2018-03-24T21:12:12.000Z,99145
2018-03-24T21:13:27.000Z,99146
2018-03-24T21:15:27.000Z,99145
2018-03-24T21:17:27.000Z,99148
2018-03-24T21:19:27.000Z,99151
2018-03-24T21:21:27.000Z,99146
2018-03-24T21:23:27.000Z,99151
2018-03-24T21:25:27.000Z,99150
2018-03-24T21:27:27.000Z,99151
2018-03-24T21:28:27.000Z,99154
2018-03-24T21:30:27.000Z,99153
2018-03-24T21:32:27.000Z,99154
2018-03-24T21:33:27.000Z,99155
2018-03-24T21:35:27.000Z,99149
2018-03-24T21:37:12.000Z,99146
2018-03-24T21:38:27.000Z,99141
2018-03-24T21:40:12.000Z,99140